カラチ の空港の天気 - METARとTAF

ジンナー国際空港(カラチ) ( OPKC / KHI ) - パキスタン Karachi
飛行場実況気象(Metar)
観測時間05/23 05:25 PKT (05/23 00:25 UTC)
風向・風速北北西 2m/s
視程6000m
天気現象
なし
気温25℃
湿度34%
気圧1005hPa
METAROPKC 230025Z 33004KT 6000 NSC 25/08 Q1005 NOSIG
過去の天気等 Google飛行場航空写真 Wunderground天気予報

過去48時間のMETAR

飛行場予報(TAF)
発表時間: 5/23 03:00 PKT (5/22 22:00 UTC)
予報対象時間: 23日5時 PKT ~ 24日11時 PKT
風向・風速北 5m/s 瞬間風速 10m/s
視程6,000m
なし
23日5時 PKT ~ 23日9時 PKT に一時的に
風向・風速西北西 4m/s
視程5,000m
天気現象煙霧
少しの雲 雲底高度 1,220m
23日16時 PKT ~ 23日20時 PKT に一時的に
風向・風速西 4m/s 瞬間風速 9m/s
視程6,000m
なし
23日23時 PKT から
風向・風速西北西 5m/s
視程6,000m
なし
24日5時 PKT ~ 24日9時 PKT に一時的に
風向・風速西 4m/s
視程5,000m
天気現象煙霧
少しの雲 雲底高度 910m
全天の4割程度の雲 雲底高度 3,050m
TAF OPKC 222200Z 2300/2406 36010G20KT 6000 NSC
TEMPO 2300/2304 29008KT 5000 HZ FEW040
TEMPO 2311/2315 27008G18KT 6000 NSC
FM231800 29010KT 6000 NSC
TEMPO 2400/2404 27007KT 5000 HZ FEW030 SCT100